createdAt,value
2023-01-17T00:00:24.983Z,8.79
2023-01-17T00:01:32.731Z,8.79
2023-01-17T00:02:34.402Z,8.79
2023-01-17T00:03:56.576Z,8.78
2023-01-17T00:05:16.394Z,8.80
2023-01-17T00:06:36.273Z,8.75
2023-01-17T00:07:56.642Z,8.71
2023-01-17T00:09:16.737Z,8.75
2023-01-17T00:10:23.827Z,8.75
2023-01-17T00:11:25.349Z,8.76
2023-01-17T00:12:30.985Z,8.79
2023-01-17T00:13:32.545Z,8.80
2023-01-17T00:14:34.378Z,8.78
2023-01-17T00:15:37.320Z,8.82
2023-01-17T00:16:38.863Z,8.83
2023-01-17T00:17:40.416Z,8.86
2023-01-17T00:19:01.887Z,8.86
2023-01-17T00:20:22.190Z,8.90
2023-01-17T00:21:42.301Z,8.90
2023-01-17T00:23:03.318Z,8.93
2023-01-17T00:24:24.067Z,8.97
2023-01-17T00:25:48.567Z,8.97
2023-01-17T00:27:08.382Z,8.95
2023-01-17T00:28:09.952Z,8.95
2023-01-17T00:29:11.447Z,8.95
2023-01-17T00:30:13.239Z,8.96
2023-01-17T00:31:16.434Z,8.93
2023-01-17T00:32:17.974Z,8.93
2023-01-17T00:33:21.201Z,8.93
2023-01-17T00:34:22.665Z,8.93
2023-01-17T00:35:26.517Z,8.93
2023-01-17T00:36:28.035Z,8.96
2023-01-17T00:37:29.548Z,8.96
2023-01-17T00:38:33.827Z,8.95
2023-01-17T00:39:35.333Z,8.98
2023-01-17T00:40:38.913Z,8.98
2023-01-17T00:41:40.371Z,8.98
2023-01-17T00:42:41.870Z,9.03
2023-01-17T00:44:01.722Z,9.06
2023-01-17T00:45:22.006Z,9.07
2023-01-17T00:46:42.454Z,9.03
2023-01-17T00:48:06.205Z,9.05
2023-01-17T00:49:26.589Z,9.09
2023-01-17T00:50:46.787Z,9.11
2023-01-17T00:52:06.476Z,9.12
2023-01-17T00:53:26.300Z,9.09
2023-01-17T00:54:46.428Z,9.09
2023-01-17T00:56:06.241Z,9.09
2023-01-17T00:57:26.638Z,9.12
2023-01-17T00:58:46.868Z,9.12
2023-01-17T01:00:07.442Z,9.13
2023-01-17T01:01:27.407Z,9.18
2023-01-17T01:02:48.001Z,9.20
2023-01-17T01:04:08.110Z,9.18
2023-01-17T01:05:29.540Z,9.21
2023-01-17T01:06:49.557Z,9.19
2023-01-17T01:08:10.098Z,9.18
2023-01-17T01:09:30.329Z,9.19
2023-01-17T01:10:51.716Z,9.22
2023-01-17T01:12:11.762Z,9.27
2023-01-17T01:13:32.147Z,9.30
2023-01-17T01:14:52.206Z,9.33
2023-01-17T01:16:12.706Z,9.33
2023-01-17T01:17:33.015Z,9.30
2023-01-17T01:18:53.639Z,9.29
2023-01-17T01:20:13.837Z,9.26
2023-01-17T01:21:33.723Z,9.27
2023-01-17T01:22:54.082Z,9.27
2023-01-17T01:24:13.941Z,9.20
2023-01-17T01:25:34.428Z,9.19
2023-01-17T01:26:54.791Z,9.15
2023-01-17T01:28:23.298Z,9.19
2023-01-17T01:29:43.081Z,9.18
2023-01-17T01:31:03.516Z,9.16
2023-01-17T01:32:23.887Z,9.14
2023-01-17T01:33:25.346Z,9.12
2023-01-17T01:34:26.922Z,9.12
2023-01-17T01:35:28.787Z,9.14
2023-01-17T01:36:30.427Z,9.16
2023-01-17T01:37:31.989Z,9.20
2023-01-17T01:38:33.594Z,9.20
2023-01-17T01:39:35.097Z,9.21
2023-01-17T01:40:51.323Z,9.18
2023-01-17T01:41:52.893Z,9.17
2023-01-17T01:42:56.936Z,9.14
2023-01-17T01:43:58.636Z,9.10
2023-01-17T01:45:00.202Z,9.07
2023-01-17T01:46:01.915Z,9.05
2023-01-17T01:47:03.509Z,9.03
2023-01-17T01:48:41.341Z,9.03
2023-01-17T01:49:43.459Z,9.01
2023-01-17T01:50:45.613Z,9.01
2023-01-17T01:52:07.893Z,9.03
2023-01-17T01:53:10.631Z,9.00
2023-01-17T01:54:21.684Z,8.99
2023-01-17T01:55:29.356Z,8.99
2023-01-17T01:56:32.241Z,8.99
2023-01-17T01:57:42.317Z,8.99
2023-01-17T01:58:49.170Z,8.98
2023-01-17T02:00:08.285Z,8.98
2023-01-17T02:01:10.595Z,8.99
2023-01-17T02:02:12.652Z,8.99
2023-01-17T02:03:20.102Z,8.99
2023-01-17T02:04:22.734Z,9.03
2023-01-17T02:05:27.325Z,9.01
2023-01-17T02:06:35.305Z,9.01
2023-01-17T02:07:43.435Z,9.01
2023-01-17T02:08:45.368Z,8.96
2023-01-17T02:09:47.133Z,8.95
2023-01-17T02:10:49.040Z,8.95
2023-01-17T02:11:50.797Z,8.92
2023-01-17T02:12:53.278Z,8.91
2023-01-17T02:13:54.987Z,8.91
2023-01-17T02:14:57.261Z,8.91
2023-01-17T02:16:25.443Z,8.93
2023-01-17T02:18:02.700Z,8.95
2023-01-17T02:19:32.066Z,8.95
2023-01-17T02:20:58.737Z,8.98
2023-01-17T02:22:20.169Z,8.97
2023-01-17T02:23:33.815Z,8.96
2023-01-17T02:24:35.314Z,8.98
2023-01-17T02:25:58.612Z,8.99
2023-01-17T02:27:07.362Z,8.98
2023-01-17T02:28:47.779Z,9.02
2023-01-17T02:30:14.047Z,9.07
2023-01-17T02:31:27.684Z,9.11
2023-01-17T02:33:10.604Z,9.15
2023-01-17T02:34:15.181Z,9.18
2023-01-17T02:35:28.107Z,9.22
2023-01-17T02:36:35.654Z,9.27
2023-01-17T02:37:55.845Z,9.23
2023-01-17T02:39:15.544Z,9.21
2023-01-17T02:40:25.438Z,9.24
2023-01-17T02:41:35.523Z,9.27
2023-01-17T02:42:43.079Z,9.33
2023-01-17T02:43:44.940Z,9.36
2023-01-17T02:44:46.568Z,9.34
2023-01-17T02:45:48.119Z,9.31
2023-01-17T02:46:53.140Z,9.28
2023-01-17T02:47:54.642Z,9.23
2023-01-17T02:48:57.861Z,9.17
2023-01-17T02:50:12.090Z,9.17
2023-01-17T02:51:26.467Z,9.15
2023-01-17T02:52:39.747Z,9.09
2023-01-17T02:53:44.285Z,9.06
2023-01-17T02:55:11.564Z,9.08
2023-01-17T02:56:33.310Z,9.03
2023-01-17T02:58:16.838Z,8.99
2023-01-17T02:59:47.582Z,9.02
2023-01-17T03:01:10.972Z,9.03
2023-01-17T03:02:47.772Z,9.06
2023-01-17T03:04:03.618Z,9.00
2023-01-17T03:05:09.298Z,8.96
2023-01-17T03:06:21.719Z,8.94
2023-01-17T03:07:27.415Z,8.93
2023-01-17T03:08:29.497Z,8.94
2023-01-17T03:09:32.294Z,8.96
2023-01-17T03:10:35.203Z,8.98
2023-01-17T03:11:36.851Z,8.99
2023-01-17T03:12:40.466Z,9.03
2023-01-17T03:13:42.398Z,9.09
2023-01-17T03:14:43.953Z,9.09
2023-01-17T03:15:45.628Z,9.02
2023-01-17T03:16:47.485Z,9.04
2023-01-17T03:17:52.213Z,9.02
2023-01-17T03:18:54.003Z,9.04
2023-01-17T03:19:55.572Z,8.95
2023-01-17T03:20:57.126Z,8.96
2023-01-17T03:21:58.687Z,9.00
2023-01-17T03:23:00.336Z,8.98
2023-01-17T03:24:03.065Z,8.98
2023-01-17T03:25:05.473Z,8.93
2023-01-17T03:26:07.069Z,8.90
2023-01-17T03:27:08.655Z,8.92
2023-01-17T03:28:10.197Z,8.88
2023-01-17T03:29:11.968Z,8.94
2023-01-17T03:30:13.963Z,8.87
2023-01-17T03:31:17.038Z,8.88
2023-01-17T03:32:18.623Z,8.86
2023-01-17T03:33:20.173Z,8.90
2023-01-17T03:34:21.799Z,8.92
2023-01-17T03:35:23.340Z,8.95
2023-01-17T03:36:24.866Z,8.92
2023-01-17T03:37:26.419Z,8.89
2023-01-17T03:38:29.355Z,8.91
2023-01-17T03:39:31.015Z,9.02
2023-01-17T03:40:33.136Z,9.02
2023-01-17T03:41:34.667Z,9.02
2023-01-17T03:42:36.242Z,9.04
2023-01-17T03:43:38.670Z,9.03
2023-01-17T03:44:40.548Z,9.06
2023-01-17T03:45:42.172Z,9.06
2023-01-17T03:46:44.552Z,9.07
2023-01-17T03:47:46.088Z,9.08
2023-01-17T03:48:48.282Z,9.03
2023-01-17T03:49:49.851Z,8.99
2023-01-17T03:50:51.509Z,9.04
2023-01-17T03:51:53.080Z,9.03
2023-01-17T03:52:54.654Z,8.97
2023-01-17T03:53:56.205Z,8.92
2023-01-17T03:54:57.840Z,8.93
2023-01-17T03:55:59.341Z,8.96
2023-01-17T03:57:00.860Z,8.96
2023-01-17T03:58:02.383Z,8.98
2023-01-17T03:59:03.884Z,8.98
2023-01-17T04:00:06.576Z,8.97
2023-01-17T04:01:08.569Z,8.95
2023-01-17T04:02:10.309Z,8.93
2023-01-17T04:03:11.877Z,8.94
2023-01-17T04:04:14.942Z,8.96
2023-01-17T04:05:17.091Z,8.99
2023-01-17T04:06:18.612Z,9.04
2023-01-17T04:07:20.519Z,9.09
2023-01-17T04:08:22.283Z,9.09
2023-01-17T04:09:23.889Z,9.14
2023-01-17T04:10:25.479Z,9.09
2023-01-17T04:11:27.037Z,9.05
2023-01-17T04:12:28.572Z,9.08
2023-01-17T04:13:30.078Z,9.08
2023-01-17T04:14:31.609Z,9.12
2023-01-17T04:15:33.652Z,9.11
2023-01-17T04:16:37.607Z,9.11
2023-01-17T04:17:39.432Z,9.05
2023-01-17T04:18:41.298Z,9.02
2023-01-17T04:19:42.895Z,8.98
2023-01-17T04:20:44.555Z,9.02
2023-01-17T04:21:46.135Z,9.05
2023-01-17T04:22:47.631Z,9.02
2023-01-17T04:23:49.380Z,9.06
2023-01-17T04:24:51.307Z,8.96
2023-01-17T04:25:52.856Z,8.96
2023-01-17T04:26:54.405Z,9.01
2023-01-17T04:27:55.938Z,9.05
2023-01-17T04:28:57.442Z,9.07
2023-01-17T04:29:58.986Z,9.02
2023-01-17T04:31:00.954Z,8.99
2023-01-17T04:32:02.486Z,8.97
2023-01-17T04:33:05.246Z,9.03
2023-01-17T04:34:06.802Z,8.98
2023-01-17T04:35:09.453Z,8.99
2023-01-17T04:36:10.992Z,8.95
2023-01-17T04:37:12.529Z,8.93
2023-01-17T04:38:14.095Z,8.95
2023-01-17T04:39:15.883Z,8.95
2023-01-17T04:40:18.174Z,8.98
2023-01-17T04:41:19.777Z,8.99
2023-01-17T04:42:21.400Z,8.97
2023-01-17T04:43:22.930Z,8.95
2023-01-17T04:44:24.509Z,8.97
2023-01-17T04:45:26.037Z,8.96
2023-01-17T04:46:28.413Z,8.95
2023-01-17T04:47:30.059Z,8.99
2023-01-17T04:48:31.649Z,9.03
2023-01-17T04:49:33.281Z,9.07
2023-01-17T04:50:34.818Z,9.02
2023-01-17T04:51:36.612Z,8.99
2023-01-17T04:52:38.188Z,9.01
2023-01-17T04:53:39.771Z,8.99
2023-01-17T04:54:41.736Z,8.96
2023-01-17T04:55:46.685Z,8.96
2023-01-17T04:56:49.074Z,8.96
2023-01-17T04:57:50.656Z,8.96
2023-01-17T04:58:52.229Z,8.98
2023-01-17T04:59:53.812Z,8.97
2023-01-17T05:00:55.482Z,8.95
2023-01-17T05:01:57.104Z,8.92
2023-01-17T05:02:58.714Z,8.86
2023-01-17T05:04:00.283Z,8.86
2023-01-17T05:05:01.896Z,8.84
2023-01-17T05:06:03.539Z,8.80
2023-01-17T05:07:05.595Z,8.77
2023-01-17T05:08:07.142Z,8.77
2023-01-17T05:09:08.855Z,8.76
2023-01-17T05:10:11.030Z,8.69
2023-01-17T05:11:12.959Z,8.62
2023-01-17T05:12:14.661Z,8.59
2023-01-17T05:13:16.291Z,8.56
2023-01-17T05:14:17.794Z,8.50
2023-01-17T05:15:19.396Z,8.49
2023-01-17T05:16:21.040Z,8.44
2023-01-17T05:17:22.596Z,8.42
2023-01-17T05:18:24.807Z,8.47
2023-01-17T05:19:27.158Z,8.47
2023-01-17T05:20:28.712Z,8.48
2023-01-17T05:21:31.565Z,8.49
2023-01-17T05:22:33.109Z,8.49
2023-01-17T05:23:34.623Z,8.49
2023-01-17T05:24:36.559Z,8.50
2023-01-17T05:25:38.149Z,8.50
2023-01-17T05:26:40.741Z,8.52
2023-01-17T05:27:42.330Z,8.54
2023-01-17T05:28:43.844Z,8.53
2023-01-17T05:29:45.375Z,8.56
2023-01-17T05:30:46.893Z,8.63
2023-01-17T05:31:48.491Z,8.62
2023-01-17T05:32:52.146Z,8.64
2023-01-17T05:33:53.714Z,8.63
2023-01-17T05:34:55.239Z,8.68
2023-01-17T05:35:57.162Z,8.65
2023-01-17T05:36:58.788Z,8.63
2023-01-17T05:38:00.529Z,8.67
2023-01-17T05:39:02.061Z,8.71
2023-01-17T05:40:06.175Z,8.75
2023-01-17T05:41:07.726Z,8.79
2023-01-17T05:42:09.286Z,8.80
2023-01-17T05:43:10.843Z,8.82
2023-01-17T05:44:12.478Z,8.84
2023-01-17T05:45:17.001Z,8.88
2023-01-17T05:46:18.586Z,8.93
2023-01-17T05:47:20.137Z,9.02
2023-01-17T05:48:21.805Z,9.05
2023-01-17T05:49:23.401Z,9.05
2023-01-17T05:50:30.453Z,9.08
2023-01-17T05:51:32.612Z,9.09
2023-01-17T05:52:34.160Z,9.06
2023-01-17T05:53:35.713Z,9.02
2023-01-17T05:54:37.271Z,9.02
2023-01-17T05:55:39.938Z,9.03
2023-01-17T05:56:41.440Z,9.02
2023-01-17T05:57:42.973Z,8.99
2023-01-17T05:58:44.661Z,9.01
2023-01-17T05:59:46.160Z,9.02
2023-01-17T06:00:48.421Z,9.02
2023-01-17T06:01:49.988Z,9.01
2023-01-17T06:02:55.963Z,9.01
2023-01-17T06:03:57.611Z,9.01
2023-01-17T06:05:00.097Z,9.01
2023-01-17T06:06:02.846Z,9.06
2023-01-17T06:07:04.354Z,9.04
2023-01-17T06:08:06.164Z,9.07
2023-01-17T06:09:07.761Z,9.09
2023-01-17T06:10:10.825Z,9.10
2023-01-17T06:11:12.340Z,9.11
2023-01-17T06:12:13.840Z,9.14
2023-01-17T06:13:20.781Z,9.13
2023-01-17T06:14:22.403Z,9.12
2023-01-17T06:15:24.142Z,9.13
2023-01-17T06:16:25.842Z,9.13
2023-01-17T06:17:27.433Z,9.12
2023-01-17T06:18:29.016Z,9.08
2023-01-17T06:19:30.797Z,9.08
2023-01-17T06:20:33.333Z,9.10
2023-01-17T06:21:34.934Z,9.09
2023-01-17T06:22:36.648Z,9.11
2023-01-17T06:23:38.515Z,9.15
2023-01-17T06:24:40.073Z,9.17
2023-01-17T06:25:44.014Z,9.19
2023-01-17T06:26:45.577Z,9.22
2023-01-17T06:27:47.130Z,9.23
2023-01-17T06:28:48.656Z,9.22
2023-01-17T06:29:50.261Z,9.22
2023-01-17T06:30:51.841Z,9.23
2023-01-17T06:31:53.372Z,9.27
2023-01-17T06:32:55.665Z,9.27
2023-01-17T06:33:57.200Z,9.28
2023-01-17T06:34:58.794Z,9.29
2023-01-17T06:36:00.325Z,9.31
2023-01-17T06:37:01.833Z,9.34
2023-01-17T06:38:04.056Z,9.36
2023-01-17T06:39:05.641Z,9.35
2023-01-17T06:40:08.066Z,9.35
2023-01-17T06:41:09.785Z,9.36
2023-01-17T06:42:11.281Z,9.36
2023-01-17T06:43:13.023Z,9.38
2023-01-17T06:44:14.619Z,9.39
2023-01-17T06:45:16.848Z,9.39
2023-01-17T06:46:18.451Z,9.37
2023-01-17T06:47:19.994Z,9.40
2023-01-17T06:48:21.493Z,9.43
2023-01-17T06:49:23.050Z,9.44
2023-01-17T06:50:25.981Z,9.48
2023-01-17T06:51:27.946Z,9.50
2023-01-17T06:52:29.432Z,9.53
2023-01-17T06:53:30.990Z,9.56
2023-01-17T06:54:32.496Z,9.57
2023-01-17T06:55:34.891Z,9.60
2023-01-17T06:56:37.131Z,9.62
2023-01-17T06:57:38.684Z,9.64
2023-01-17T06:58:40.274Z,9.64
2023-01-17T06:59:41.841Z,9.67
2023-01-17T07:00:44.663Z,9.69
2023-01-17T07:01:46.411Z,9.72
2023-01-17T07:02:51.871Z,9.73
2023-01-17T07:03:53.897Z,9.76
2023-01-17T07:04:55.467Z,9.72
2023-01-17T07:05:56.987Z,9.74
2023-01-17T07:06:58.558Z,9.77
2023-01-17T07:08:00.131Z,9.77
2023-01-17T07:09:01.775Z,9.79
2023-01-17T07:10:05.050Z,9.82
2023-01-17T07:11:08.149Z,9.83
2023-01-17T07:12:09.834Z,9.85
2023-01-17T07:13:11.910Z,9.88
2023-01-17T07:14:14.559Z,9.84
2023-01-17T07:15:16.142Z,9.85
2023-01-17T07:16:17.880Z,9.87
2023-01-17T07:17:19.409Z,9.90
2023-01-17T07:18:23.420Z,9.89
2023-01-17T07:19:25.092Z,9.89
2023-01-17T07:20:26.658Z,9.90
2023-01-17T07:21:28.231Z,9.91
2023-01-17T07:22:29.972Z,9.93
2023-01-17T07:23:31.532Z,9.97
2023-01-17T07:24:36.359Z,9.97
2023-01-17T07:25:38.031Z,9.96
2023-01-17T07:26:40.307Z,9.94
2023-01-17T07:27:41.786Z,9.95
2023-01-17T07:28:43.747Z,9.99
2023-01-17T07:29:45.273Z,10.00
2023-01-17T07:30:47.028Z,10.02
2023-01-17T07:31:49.124Z,10.05
2023-01-17T07:32:52.982Z,10.07
2023-01-17T07:33:54.574Z,10.08
2023-01-17T07:34:58.984Z,10.09
2023-01-17T07:36:06.289Z,10.12
2023-01-17T07:37:08.549Z,10.18
2023-01-17T07:38:16.267Z,10.23
2023-01-17T07:39:17.905Z,10.25
2023-01-17T07:40:20.942Z,10.24
2023-01-17T07:41:22.718Z,10.27
2023-01-17T07:42:24.512Z,10.31
2023-01-17T07:43:26.220Z,10.33
2023-01-17T07:44:27.730Z,10.36
2023-01-17T07:45:29.346Z,10.38
2023-01-17T07:46:30.939Z,10.47
2023-01-17T07:47:34.055Z,10.45
2023-01-17T07:48:35.599Z,10.45
2023-01-17T07:49:37.290Z,10.44
2023-01-17T07:50:39.320Z,10.45
2023-01-17T07:51:40.828Z,10.40
2023-01-17T07:52:42.448Z,10.40
2023-01-17T07:53:43.994Z,10.41
2023-01-17T07:54:45.590Z,10.42
2023-01-17T07:55:47.224Z,10.41
2023-01-17T07:56:49.014Z,10.40
2023-01-17T07:57:51.065Z,10.38
2023-01-17T07:58:52.991Z,10.40
2023-01-17T07:59:54.615Z,10.42
2023-01-17T08:01:03.687Z,10.43
2023-01-17T08:02:05.369Z,10.44
2023-01-17T08:03:06.932Z,10.46
2023-01-17T08:04:09.416Z,10.47
2023-01-17T08:05:11.058Z,10.49
2023-01-17T08:06:26.095Z,10.49
2023-01-17T08:07:27.825Z,10.53
2023-01-17T08:08:29.608Z,10.53
2023-01-17T08:09:31.195Z,10.54
2023-01-17T08:10:32.790Z,10.54
2023-01-17T08:11:34.294Z,10.60
2023-01-17T08:12:36.030Z,10.58
2023-01-17T08:13:37.580Z,10.59
2023-01-17T08:14:39.136Z,10.57
2023-01-17T08:15:41.098Z,10.58
2023-01-17T08:16:42.851Z,10.57
2023-01-17T08:17:54.085Z,10.56
2023-01-17T08:18:56.482Z,10.55
2023-01-17T08:19:58.035Z,10.56
2023-01-17T08:20:59.686Z,10.59
2023-01-17T08:22:01.360Z,10.58
2023-01-17T08:23:02.915Z,10.59
2023-01-17T08:24:04.794Z,10.60
2023-01-17T08:25:06.667Z,10.60
2023-01-17T08:26:08.233Z,10.60
2023-01-17T08:27:10.049Z,10.61
2023-01-17T08:28:12.279Z,10.62
2023-01-17T08:29:14.064Z,10.63
2023-01-17T08:30:15.980Z,10.65
2023-01-17T08:31:17.797Z,10.69
2023-01-17T08:32:21.324Z,10.72
2023-01-17T08:33:22.892Z,10.75
2023-01-17T08:34:24.517Z,10.75
2023-01-17T08:35:27.829Z,10.76
2023-01-17T08:36:31.275Z,10.79
2023-01-17T08:37:33.180Z,10.81
2023-01-17T08:38:34.705Z,10.84
2023-01-17T08:39:36.319Z,10.87
2023-01-17T08:40:37.859Z,10.93
2023-01-17T08:41:39.563Z,10.97
2023-01-17T08:42:41.098Z,11.03
2023-01-17T08:43:42.635Z,11.11
2023-01-17T08:44:44.203Z,11.13
2023-01-17T08:45:48.228Z,11.14
2023-01-17T08:46:50.200Z,11.09
2023-01-17T08:47:52.446Z,11.08
2023-01-17T08:48:58.994Z,11.07
2023-01-17T08:50:01.104Z,11.03
2023-01-17T08:51:04.706Z,11.03
2023-01-17T08:52:06.463Z,11.03
2023-01-17T08:53:08.066Z,11.03
2023-01-17T08:54:11.910Z,11.03
2023-01-17T08:55:13.498Z,11.10
2023-01-17T08:56:15.009Z,11.10
2023-01-17T08:57:16.525Z,11.11
2023-01-17T08:58:18.217Z,11.12
2023-01-17T08:59:19.774Z,11.16
2023-01-17T09:00:21.984Z,11.16
2023-01-17T09:01:23.709Z,11.17
2023-01-17T09:02:25.353Z,11.21
2023-01-17T09:03:26.937Z,11.19
2023-01-17T09:04:28.578Z,11.18
2023-01-17T09:05:30.202Z,11.18
2023-01-17T09:06:31.734Z,11.14
2023-01-17T09:07:33.399Z,11.13
2023-01-17T09:08:38.235Z,11.11
2023-01-17T09:09:39.908Z,11.10
2023-01-17T09:10:41.436Z,11.11
2023-01-17T09:11:43.144Z,11.13
2023-01-17T09:12:44.682Z,11.17
2023-01-17T09:13:46.250Z,11.17
2023-01-17T09:14:48.475Z,11.15
2023-01-17T09:15:50.319Z,11.16
2023-01-17T09:16:51.946Z,11.18
2023-01-17T09:17:57.238Z,11.17
2023-01-17T09:18:59.497Z,11.14
2023-01-17T09:20:01.151Z,11.10
2023-01-17T09:21:17.290Z,11.09
2023-01-17T09:22:18.854Z,11.09
2023-01-17T09:23:23.951Z,11.07
2023-01-17T09:24:25.528Z,11.12
2023-01-17T09:25:27.541Z,11.09
2023-01-17T09:26:30.213Z,11.09
2023-01-17T09:27:31.800Z,11.15
2023-01-17T09:28:41.016Z,11.12
2023-01-17T09:29:42.686Z,11.16
2023-01-17T09:30:44.260Z,11.13
2023-01-17T09:31:48.075Z,11.13
2023-01-17T09:32:54.223Z,11.13
2023-01-17T09:33:57.286Z,11.12
2023-01-17T09:35:01.034Z,11.15
2023-01-17T09:36:04.476Z,11.15
2023-01-17T09:37:07.581Z,11.18
2023-01-17T09:38:09.230Z,11.18
2023-01-17T09:39:11.400Z,11.18
2023-01-17T09:40:21.123Z,11.21
2023-01-17T09:41:29.084Z,11.21
2023-01-17T09:42:40.182Z,11.20
2023-01-17T09:43:47.510Z,11.18
2023-01-17T09:44:52.670Z,11.19
2023-01-17T09:45:54.478Z,11.18
2023-01-17T09:47:04.515Z,11.14
2023-01-17T09:48:10.175Z,11.17
2023-01-17T09:49:21.609Z,11.16
2023-01-17T09:50:38.458Z,11.15
2023-01-17T09:51:42.126Z,11.13
2023-01-17T09:52:44.493Z,11.17
2023-01-17T09:53:46.068Z,11.13
2023-01-17T09:54:49.726Z,11.14
2023-01-17T09:56:00.812Z,11.12
2023-01-17T09:57:17.576Z,11.13
2023-01-17T09:58:55.967Z,11.15
2023-01-17T10:00:13.069Z,11.14
2023-01-17T10:01:35.840Z,11.15
2023-01-17T10:03:14.688Z,11.17
2023-01-17T10:04:58.579Z,11.17
2023-01-17T10:06:24.315Z,11.19
2023-01-17T10:07:44.128Z,11.23
2023-01-17T10:09:08.103Z,11.21
2023-01-17T10:10:51.030Z,11.19
2023-01-17T10:12:11.587Z,11.17
2023-01-17T10:13:28.252Z,11.18
2023-01-17T10:14:56.272Z,11.18
2023-01-17T10:16:05.804Z,11.21
2023-01-17T10:17:36.376Z,11.26
2023-01-17T10:18:49.668Z,11.26
2023-01-17T10:20:39.236Z,11.30
2023-01-17T10:21:59.208Z,11.36
2023-01-17T10:23:32.419Z,11.39
2023-01-17T10:24:42.988Z,11.43
2023-01-17T10:26:00.459Z,11.44
2023-01-17T10:27:03.403Z,11.51
2023-01-17T10:28:09.907Z,11.55
2023-01-17T10:29:21.296Z,11.60
2023-01-17T10:30:38.117Z,11.70
2023-01-17T10:31:45.218Z,11.83
2023-01-17T10:32:49.655Z,11.91
2023-01-17T10:33:53.831Z,11.98
2023-01-17T10:35:03.043Z,12.05
2023-01-17T10:36:15.425Z,12.12
2023-01-17T10:37:20.790Z,12.17
2023-01-17T10:38:29.100Z,12.24
2023-01-17T10:39:35.026Z,12.29
2023-01-17T10:40:54.922Z,12.26
2023-01-17T10:42:11.528Z,12.28
2023-01-17T10:43:30.183Z,12.30
2023-01-17T10:44:48.773Z,12.34
2023-01-17T10:45:55.781Z,12.36
2023-01-17T10:47:12.187Z,12.34
2023-01-17T10:48:52.704Z,12.33
2023-01-17T10:49:58.447Z,12.37
2023-01-17T10:51:17.704Z,12.42
2023-01-17T10:52:56.641Z,12.36
2023-01-17T10:53:59.472Z,12.36
2023-01-17T10:55:39.085Z,12.34
2023-01-17T10:56:41.697Z,12.37
2023-01-17T10:57:45.996Z,12.38
2023-01-17T10:58:49.131Z,12.42
2023-01-17T10:59:52.220Z,12.47
2023-01-17T11:01:07.871Z,12.46
2023-01-17T11:02:24.990Z,12.40
2023-01-17T11:03:28.701Z,12.44
2023-01-17T11:04:40.485Z,12.44
2023-01-17T11:05:43.097Z,12.44
2023-01-17T11:06:57.865Z,12.54
2023-01-17T11:08:11.093Z,12.64
2023-01-17T11:09:14.026Z,12.74
2023-01-17T11:10:42.611Z,12.74
2023-01-17T11:11:50.862Z,12.82
2023-01-17T11:12:52.424Z,12.89
2023-01-17T11:13:55.445Z,12.89
2023-01-17T11:15:17.823Z,12.91
2023-01-17T11:16:23.083Z,12.87
2023-01-17T11:17:25.785Z,12.90
2023-01-17T11:18:30.193Z,12.95
2023-01-17T11:19:36.285Z,12.95
2023-01-17T11:20:42.969Z,12.99
2023-01-17T11:21:54.563Z,13.10
2023-01-17T11:23:22.988Z,13.31
2023-01-17T11:24:40.644Z,13.46
2023-01-17T11:25:59.620Z,13.51
2023-01-17T11:27:05.027Z,13.45
2023-01-17T11:28:30.673Z,13.33
2023-01-17T11:29:39.051Z,13.32
2023-01-17T11:30:51.839Z,13.39
2023-01-17T11:31:56.227Z,13.38
2023-01-17T11:32:59.535Z,13.24
2023-01-17T11:34:15.346Z,13.20
2023-01-17T11:35:21.229Z,13.17
2023-01-17T11:36:22.870Z,13.18
2023-01-17T11:37:26.255Z,13.26
2023-01-17T11:38:27.785Z,13.35
2023-01-17T11:39:29.379Z,13.38
2023-01-17T11:40:37.386Z,13.39
2023-01-17T11:41:41.175Z,13.48
2023-01-17T11:42:42.795Z,13.57
2023-01-17T11:43:53.904Z,13.62
2023-01-17T11:44:56.311Z,13.64
2023-01-17T11:46:21.397Z,13.70
2023-01-17T11:47:22.976Z,13.72
2023-01-17T11:48:24.502Z,13.75
2023-01-17T11:49:26.135Z,13.67
2023-01-17T11:50:28.007Z,13.76
2023-01-17T11:51:38.876Z,13.71
2023-01-17T11:52:40.464Z,13.65
2023-01-17T11:53:48.096Z,13.65
2023-01-17T11:54:51.183Z,13.66
2023-01-17T11:56:18.701Z,13.70
2023-01-17T11:57:24.855Z,13.75
2023-01-17T11:58:28.027Z,13.79
2023-01-17T11:59:37.574Z,13.84
2023-01-17T12:00:47.257Z,13.91
2023-01-17T12:02:21.271Z,13.79
2023-01-17T12:03:44.772Z,13.84
2023-01-17T12:05:00.614Z,13.82
2023-01-17T12:06:20.960Z,13.82
2023-01-17T12:07:37.998Z,13.85
2023-01-17T12:08:59.815Z,13.74
2023-01-17T12:10:30.525Z,13.73
2023-01-17T12:12:01.046Z,13.52
2023-01-17T12:13:59.039Z,13.53
2023-01-17T12:15:00.771Z,13.57
2023-01-17T12:16:23.944Z,13.65
2023-01-17T12:17:42.207Z,13.69
2023-01-17T12:18:55.833Z,13.85
2023-01-17T12:20:05.963Z,13.94
2023-01-17T12:21:20.711Z,14.07
2023-01-17T12:22:33.816Z,14.13
2023-01-17T12:23:43.295Z,14.09
2023-01-17T12:24:47.644Z,13.98
2023-01-17T12:25:55.312Z,13.82
2023-01-17T12:27:12.735Z,13.71
2023-01-17T12:28:47.855Z,13.75
2023-01-17T12:30:15.453Z,13.59
2023-01-17T12:31:23.106Z,13.51
2023-01-17T12:32:27.286Z,13.42
2023-01-17T12:33:53.926Z,13.53
2023-01-17T12:35:16.630Z,13.54
2023-01-17T12:36:37.061Z,13.58
2023-01-17T12:37:45.107Z,13.59
2023-01-17T12:38:48.482Z,13.59
2023-01-17T12:40:02.588Z,13.56
2023-01-17T12:41:12.493Z,13.54
2023-01-17T12:42:26.635Z,13.47
2023-01-17T12:43:39.469Z,13.48
2023-01-17T12:44:47.185Z,13.52
2023-01-17T12:45:51.002Z,13.54
2023-01-17T12:47:03.361Z,13.53
2023-01-17T12:48:10.332Z,13.61
2023-01-17T12:49:20.759Z,13.55
2023-01-17T12:50:33.750Z,13.54
2023-01-17T12:51:41.258Z,13.51
2023-01-17T12:52:55.104Z,13.46
2023-01-17T12:54:12.138Z,13.44
2023-01-17T12:55:52.705Z,13.37
2023-01-17T12:56:59.006Z,13.37
2023-01-17T12:58:04.127Z,13.36
2023-01-17T12:59:35.658Z,13.36
2023-01-17T13:00:39.582Z,13.38
2023-01-17T13:01:57.414Z,13.36
2023-01-17T13:03:07.731Z,13.39
2023-01-17T13:04:19.935Z,13.33
2023-01-17T13:05:40.977Z,13.33
2023-01-17T13:06:50.990Z,13.31
2023-01-17T13:08:15.716Z,13.28
2023-01-17T13:09:21.799Z,13.32
2023-01-17T13:11:10.772Z,13.28
2023-01-17T13:12:21.333Z,13.28
2023-01-17T13:13:26.242Z,13.29
2023-01-17T13:14:28.063Z,13.22
2023-01-17T13:15:37.518Z,13.19
2023-01-17T13:16:40.639Z,13.21
2023-01-17T13:17:50.816Z,13.20
2023-01-17T13:18:54.220Z,13.18
2023-01-17T13:20:26.812Z,13.29
2023-01-17T13:21:33.378Z,13.33
2023-01-17T13:22:37.447Z,13.37
2023-01-17T13:23:59.088Z,13.39
2023-01-17T13:25:26.546Z,13.38
2023-01-17T13:26:52.393Z,13.33
2023-01-17T13:28:03.163Z,13.33
2023-01-17T13:29:26.350Z,13.29
2023-01-17T13:30:59.187Z,13.17
2023-01-17T13:32:25.594Z,13.24
2023-01-17T13:33:45.565Z,13.19
2023-01-17T13:35:17.248Z,13.19
2023-01-17T13:36:58.200Z,13.22
2023-01-17T13:38:16.408Z,13.13
2023-01-17T13:39:33.394Z,13.09
2023-01-17T13:40:43.853Z,13.09
2023-01-17T13:42:01.610Z,13.08
2023-01-17T13:43:06.169Z,13.09
2023-01-17T13:44:22.285Z,13.11
2023-01-17T13:45:32.780Z,13.15
2023-01-17T13:47:00.804Z,13.12
2023-01-17T13:48:18.119Z,13.13
2023-01-17T13:49:45.072Z,13.07
2023-01-17T13:50:55.919Z,13.05
2023-01-17T13:52:12.148Z,13.06
2023-01-17T13:53:28.731Z,13.04
2023-01-17T13:54:35.073Z,13.05
2023-01-17T13:55:50.599Z,13.12
2023-01-17T13:57:29.627Z,13.11
2023-01-17T13:58:56.913Z,13.08
2023-01-17T14:00:22.357Z,13.07
2023-01-17T14:01:24.072Z,13.02
2023-01-17T14:02:31.781Z,13.02
2023-01-17T14:04:04.205Z,12.99
2023-01-17T14:05:21.350Z,12.98
2023-01-17T14:06:44.837Z,12.94
2023-01-17T14:08:05.103Z,12.91
2023-01-17T14:09:15.992Z,12.89
2023-01-17T14:10:40.940Z,12.90
2023-01-17T14:12:01.580Z,12.89
2023-01-17T14:13:05.553Z,12.87
2023-01-17T14:14:34.797Z,12.87
2023-01-17T14:15:49.700Z,12.81
2023-01-17T14:16:51.260Z,12.78
2023-01-17T14:17:55.928Z,12.75
2023-01-17T14:18:57.550Z,12.74
2023-01-17T14:20:32.574Z,12.72
2023-01-17T14:21:35.655Z,12.71
2023-01-17T14:22:41.683Z,12.69
2023-01-17T14:24:03.897Z,12.66
2023-01-17T14:25:11.170Z,12.67
2023-01-17T14:26:21.045Z,12.65
2023-01-17T14:27:27.536Z,12.64
2023-01-17T14:28:31.465Z,12.65
2023-01-17T14:29:58.979Z,12.68
2023-01-17T14:31:03.130Z,12.67
2023-01-17T14:32:09.819Z,12.68
2023-01-17T14:33:30.079Z,12.64
2023-01-17T14:34:31.884Z,12.65
2023-01-17T14:35:36.648Z,12.63
2023-01-17T14:36:38.331Z,12.62
2023-01-17T14:37:51.411Z,12.61
2023-01-17T14:38:53.257Z,12.64
2023-01-17T14:39:54.882Z,12.63
2023-01-17T14:41:09.422Z,12.64
2023-01-17T14:42:17.458Z,12.64
2023-01-17T14:43:21.573Z,12.65
2023-01-17T14:44:23.130Z,12.63
2023-01-17T14:45:28.772Z,12.60
2023-01-17T14:46:32.478Z,12.59
2023-01-17T14:47:37.162Z,12.61
2023-01-17T14:48:40.840Z,12.60
2023-01-17T14:49:42.678Z,12.60
2023-01-17T14:50:45.730Z,12.63